Time;durP1;ratioP1;P1;durP2;ratioP2;P2;SDS_P1;SDS_P2;PMS_P1;PMS_P2;Temp;Humidity;BMP_temperature;BMP_pressure;BME280_temperature;BME280_humidity;BME280_pressure;Samples;Min_cycle;Max_cycle;Signal;HPM_P1;HPM_P2
2021/12/10 00:01:53;;;;;;;14.73;12.05;;;5.30;78.30;;;;;;5070762;28;20028;-74
2021/12/10 00:04:21;;;;;;;13.77;11.55;;;5.30;78.40;;;;;;5070980;28;20035;-64
2021/12/10 00:06:54;;;;;;;13.63;11.68;;;5.20;78.60;;;;;;5071426;28;20028;-69
2021/12/10 00:09:30;;;;;;;15.40;12.10;;;5.20;78.80;;;;;;5071888;28;20028;-69
2021/12/10 00:12:06;;;;;;;14.07;11.60;;;5.20;78.80;;;;;;5072106;28;20085;-71
2021/12/10 00:14:35;;;;;;;14.02;11.68;;;5.20;78.90;;;;;;5071218;28;20032;-71
2021/12/10 00:17:04;;;;;;;12.93;10.88;;;5.20;78.90;;;;;;5071639;28;20029;-66
2021/12/10 00:19:41;;;;;;;13.75;11.20;;;5.30;78.90;;;;;;5070134;28;20029;-66
2021/12/10 00:22:13;;;;;;;13.85;11.48;;;5.30;78.70;;;;;;5072350;28;20527;-67
2021/12/10 00:24:41;;;;;;;12.65;10.77;;;5.30;78.60;;;;;;5071310;28;20021;-66
2021/12/10 00:27:09;;;;;;;13.13;11.02;;;5.30;78.50;;;;;;5066702;28;20069;-66
2021/12/10 00:29:40;;;;;;;13.30;11.10;;;5.30;78.50;;;;;;5051539;28;20037;-67
2021/12/10 00:32:19;;;;;;;15.25;10.18;;;5.30;78.50;;;;;;5054640;28;20040;-66
2021/12/10 00:34:50;;;;;;;12.32;9.50;;;5.20;78.70;;;;;;5056022;28;20025;-75
2021/12/10 00:37:19;;;;;;;10.82;9.70;;;5.20;78.90;;;;;;5038176;28;20017;-68
2021/12/10 00:39:52;;;;;;;11.65;9.93;;;5.20;79.00;;;;;;5055404;28;20021;-72
2021/12/10 00:42:22;;;;;;;12.57;9.70;;;5.20;79.00;;;;;;5038216;28;20029;-75
2021/12/10 00:44:48;;;;;;;10.57;8.27;;;5.30;78.90;;;;;;5055338;28;20036;-70
2021/12/10 00:47:14;;;;;;;9.75;8.68;;;5.30;78.80;;;;;;5055638;28;20024;-67
2021/12/10 00:49:41;;;;;;;8.98;7.95;;;5.30;78.70;;;;;;5054219;28;20385;-67
2021/12/10 00:52:09;;;;;;;9.05;8.07;;;5.30;78.70;;;;;;5054996;28;20029;-68
2021/12/10 00:54:36;;;;;;;10.35;7.88;;;5.20;78.60;;;;;;5036337;28;20024;-63
2021/12/10 00:57:04;;;;;;;10.27;8.43;;;5.30;78.70;;;;;;5054973;28;20048;-69
2021/12/10 00:59:29;;;;;;;11.30;7.45;;;5.30;78.60;;;;;;5054314;28;20111;-65
2021/12/10 01:01:55;;;;;;;8.57;7.50;;;5.30;78.40;;;;;;5036720;28;20474;-68
2021/12/10 01:04:26;;;;;;;8.25;7.18;;;5.30;78.50;;;;;;5054408;28;20052;-65
2021/12/10 01:06:54;;;;;;;9.50;8.00;;;5.30;78.50;;;;;;5036480;28;20033;-65
2021/12/10 01:09:28;;;;;;;7.95;7.10;;;5.30;78.50;;;;;;5054797;28;20025;-71
2021/12/10 01:12:03;;;;;;;9.70;8.30;;;5.30;78.20;;;;;;5037001;28;20060;-68
2021/12/10 01:14:50;;;;;;;8.57;7.65;;;5.30;78.20;;;;;;5054200;28;20032;-66
2021/12/10 01:25:39;;;;;;;9.45;7.45;;;5.20;78.60;;;;;;5053766;28;20036;-66
2021/12/10 01:28:07;;;;;;;9.02;7.35;;;5.10;78.50;;;;;;5054575;28;20136;-70
2021/12/10 01:30:37;;;;;;;8.90;7.82;;;5.10;78.50;;;;;;5053743;28;20041;-65
2021/12/10 01:33:16;;;;;;;9.88;8.35;;;5.10;78.50;;;;;;5054370;28;20021;-68
2021/12/10 01:35:48;;;;;;;9.88;8.15;;;5.10;78.50;;;;;;5032004;28;20028;-69
2021/12/10 01:38:16;;;;;;;9.15;8.07;;;5.00;78.60;;;;;;5054515;28;20025;-71
2021/12/10 01:40:47;;;;;;;9.57;8.32;;;5.10;78.70;;;;;;5035669;28;20036;-66
2021/12/10 01:43:22;;;;;;;10.88;8.20;;;5.00;78.70;;;;;;5053593;28;20025;-75
2021/12/10 01:45:54;;;;;;;8.95;7.78;;;5.00;78.80;;;;;;5035849;28;20094;-64
2021/12/10 01:48:33;;;;;;;9.40;7.80;;;5.00;78.90;;;;;;5053932;28;20112;-69
2021/12/10 01:51:01;;;;;;;9.20;7.80;;;5.00;79.50;;;;;;5053266;28;20037;-74
2021/12/10 01:53:29;;;;;;;9.10;7.57;;;5.00;78.80;;;;;;5053592;28;20490;-73
2021/12/10 01:55:59;;;;;;;8.32;7.20;;;5.00;78.80;;;;;;5035862;28;20029;-70
2021/12/10 01:58:27;;;;;;;9.82;8.07;;;5.00;78.80;;;;;;5053539;28;20040;-75
2021/12/10 02:01:12;;;;;;;9.27;7.95;;;4.90;78.80;;;;;;5052695;28;20084;-65
2021/12/10 02:03:39;;;;;;;9.93;7.75;;;4.90;78.80;;;;;;5053141;28;20083;-73
2021/12/10 02:06:07;;;;;;;9.15;7.70;;;4.90;78.90;;;;;;5036053;28;20032;-69
2021/12/10 02:08:34;;;;;;;11.32;8.07;;;4.90;78.90;;;;;;5034565;28;20029;-68
2021/12/10 02:11:00;;;;;;;9.35;7.63;;;5.00;78.80;;;;;;5053364;28;20069;-65
2021/12/10 02:13:27;;;;;;;11.25;8.25;;;4.90;78.90;;;;;;5053804;28;20462;-73
2021/12/10 02:15:53;;;;;;;11.57;9.07;;;4.90;78.90;;;;;;5053021;28;20028;-68
2021/12/10 02:18:21;;;;;;;8.55;7.45;;;4.90;79.10;;;;;;5053494;28;20029;-67
2021/12/10 02:21:02;;;;;;;9.15;7.45;;;4.90;79.10;;;;;;5052928;28;20462;-73
2021/12/10 02:23:37;;;;;;;9.93;8.20;;;4.90;79.10;;;;;;5053414;28;20485;-72
2021/12/10 02:26:05;;;;;;;9.95;8.10;;;5.00;79.10;;;;;;5053196;28;20024;-72
2021/12/10 02:28:31;;;;;;;9.45;8.32;;;5.00;79.20;;;;;;5064359;28;20052;-72
2021/12/10 02:30:58;;;;;;;10.02;8.85;;;5.00;79.20;;;;;;5071780;28;20025;-69
2021/12/10 02:33:25;;;;;;;9.77;8.35;;;5.00;79.40;;;;;;5072011;28;20025;-68
2021/12/10 02:35:50;;;;;;;10.05;8.20;;;5.00;79.30;;;;;;5072157;28;20029;-65
2021/12/10 02:38:16;;;;;;;12.13;8.32;;;5.10;79.20;;;;;;5071741;28;20031;-66
2021/12/10 02:40:44;;;;;;;12.90;8.40;;;5.10;79.20;;;;;;5072145;28;20032;-76
2021/12/10 02:43:12;;;;;;;10.65;8.57;;;5.20;78.90;;;;;;5071769;28;20070;-62
2021/12/10 02:45:40;;;;;;;11.68;8.98;;;5.20;78.70;;;;;;5072089;28;20020;-69
2021/12/10 02:48:06;;;;;;;10.93;8.77;;;5.20;78.70;;;;;;5073445;28;20042;-66
2021/12/10 02:50:34;;;;;;;10.00;8.60;;;5.20;78.70;;;;;;5071211;28;20388;-64
2021/12/10 02:53:00;;;;;;;12.15;9.32;;;5.10;78.70;;;;;;5071710;28;20032;-67
2021/12/10 02:55:28;;;;;;;11.45;8.75;;;5.10;78.70;;;;;;5070394;28;20074;-69
2021/12/10 02:57:57;;;;;;;10.68;9.07;;;5.10;78.80;;;;;;5071343;28;20056;-72
2021/12/10 03:00:30;;;;;;;10.70;8.68;;;5.10;78.80;;;;;;5071690;28;20078;-68
2021/12/10 03:02:57;;;;;;;10.63;8.40;;;5.20;78.90;;;;;;5073064;28;20465;-66
2021/12/10 03:05:23;;;;;;;9.60;8.52;;;5.10;78.70;;;;;;5072627;28;20028;-69
2021/12/10 03:07:50;;;;;;;11.10;8.88;;;5.20;78.50;;;;;;5072268;28;20047;-74
2021/12/10 03:10:21;;;;;;;13.63;9.10;;;5.20;78.50;;;;;;5072512;28;20032;-69
2021/12/10 03:12:48;;;;;;;10.90;8.63;;;5.20;78.50;;;;;;5072496;28;20498;-68
2021/12/10 03:15:16;;;;;;;12.73;9.13;;;5.20;78.50;;;;;;5072363;28;20111;-64
2021/12/10 03:17:42;;;;;;;11.75;9.48;;;5.20;78.50;;;;;;5071961;28;20024;-70
2021/12/10 03:20:11;;;;;;;13.55;9.18;;;5.10;78.50;;;;;;5072716;28;20039;-70
2021/12/10 03:22:38;;;;;;;10.57;8.95;;;5.10;78.50;;;;;;5072054;28;20553;-68
2021/12/10 03:25:11;;;;;;;11.65;8.52;;;5.10;78.90;;;;;;5071276;28;20032;-69
2021/12/10 03:27:37;;;;;;;12.13;8.00;;;5.10;78.50;;;;;;5063021;28;20081;-65
2021/12/10 03:30:09;;;;;;;12.18;9.05;;;5.10;78.60;;;;;;5017759;28;20131;-66
2021/12/10 03:32:37;;;;;;;11.13;8.65;;;5.00;78.60;;;;;;5034220;28;20057;-65
2021/12/10 03:35:09;;;;;;;11.52;8.52;;;5.10;78.70;;;;;;5051406;28;20024;-65
2021/12/10 03:37:37;;;;;;;10.30;8.10;;;5.10;78.60;;;;;;5052178;28;20025;-69
2021/12/10 03:40:06;;;;;;;9.85;7.75;;;5.10;78.50;;;;;;5033455;28;20036;-68
2021/12/10 03:42:32;;;;;;;11.65;8.05;;;5.00;79.10;;;;;;5051592;28;20028;-66
2021/12/10 03:44:58;;;;;;;10.80;8.05;;;5.00;78.70;;;;;;5051033;28;20196;-69
2021/12/10 03:47:24;;;;;;;10.55;7.53;;;5.00;78.80;;;;;;5051859;28;20445;-64
2021/12/10 03:49:49;;;;;;;13.68;7.80;;;5.00;78.70;;;;;;5051134;28;20036;-71
2021/12/10 03:52:16;;;;;;;10.65;7.22;;;5.00;78.70;;;;;;5033508;28;20117;-67
2021/12/10 03:54:42;;;;;;;14.82;7.20;;;5.00;78.70;;;;;;5050790;28;20536;-66
2021/12/10 03:57:09;;;;;;;9.45;7.55;;;5.00;78.70;;;;;;5051855;28;20112;-66
2021/12/10 03:59:36;;;;;;;11.55;7.68;;;5.00;78.70;;;;;;5051767;28;20025;-64
2021/12/10 04:02:05;;;;;;;12.13;7.53;;;5.00;78.70;;;;;;5051047;28;20439;-66
2021/12/10 04:04:36;;;;;;;12.60;8.20;;;5.00;78.60;;;;;;5033321;28;20167;-72
2021/12/10 04:07:07;;;;;;;13.32;7.32;;;5.00;78.60;;;;;;5054189;28;20154;-69
2021/12/10 04:09:33;;;;;;;10.60;7.90;;;5.00;78.70;;;;;;5037602;28;20029;-75
2021/12/10 04:11:59;;;;;;;10.10;7.47;;;5.00;78.70;;;;;;5037306;28;20120;-66
2021/12/10 04:14:25;;;;;;;11.07;7.80;;;5.00;78.70;;;;;;5055492;28;20029;-69
2021/12/10 04:16:56;;;;;;;11.38;7.45;;;5.00;78.60;;;;;;5054705;28;20025;-68
2021/12/10 04:19:25;;;;;;;11.27;7.22;;;5.00;78.70;;;;;;5037709;28;20075;-68
2021/12/10 04:21:52;;;;;;;11.25;7.57;;;5.00;78.70;;;;;;5036783;28;20029;-68
2021/12/10 04:24:21;;;;;;;12.15;7.85;;;5.00;78.70;;;;;;5054701;28;20039;-75
2021/12/10 04:26:47;;;;;;;12.82;7.97;;;5.00;78.60;;;;;;5035802;28;20032;-68
2021/12/10 04:29:14;;;;;;;11.68;6.85;;;5.00;78.60;;;;;;5037360;28;20489;-71
2021/12/10 04:31:40;;;;;;;9.18;6.50;;;5.00;78.70;;;;;;5054328;28;20025;-65
2021/12/10 04:34:07;;;;;;;9.88;7.53;;;5.00;78.70;;;;;;5055119;28;20025;-68
2021/12/10 04:36:34;;;;;;;11.93;6.20;;;5.00;78.70;;;;;;5054973;28;20052;-67
2021/12/10 04:39:00;;;;;;;12.32;7.70;;;5.00;78.60;;;;;;5036553;28;20037;-75
2021/12/10 04:41:26;;;;;;;14.48;8.63;;;5.00;78.70;;;;;;5055125;28;20098;-74
2021/12/10 04:43:53;;;;;;;15.40;10.23;;;4.90;78.70;;;;;;5053255;28;20029;-67
2021/12/10 04:46:19;;;;;;;14.23;10.35;;;4.90;78.80;;;;;;5053448;28;20399;-69
2021/12/10 04:48:58;;;;;;;16.23;8.30;;;4.90;78.90;;;;;;5035836;28;20128;-65
2021/12/10 04:51:31;;;;;;;10.95;7.45;;;4.90;79.00;;;;;;5053104;28;20526;-68
2021/12/10 04:53:59;;;;;;;13.18;7.85;;;4.90;79.10;;;;;;5035636;28;20016;-70
2021/12/10 04:56:26;;;;;;;13.82;8.32;;;4.90;79.10;;;;;;5035273;28;20112;-72
2021/12/10 04:58:53;;;;;;;14.25;8.60;;;4.90;79.20;;;;;;5053581;28;20120;-65
2021/12/10 05:01:19;;;;;;;14.95;8.55;;;4.80;79.30;;;;;;5053255;28;20040;-72
2021/12/10 05:03:45;;;;;;;13.05;8.55;;;4.80;79.40;;;;;;5052382;28;20025;-67
2021/12/10 05:06:11;;;;;;;13.77;8.27;;;4.80;79.60;;;;;;5036902;28;20347;-69
2021/12/10 05:08:38;;;;;;;14.52;8.18;;;4.70;79.80;;;;;;5053882;28;20033;-72
2021/12/10 05:11:07;;;;;;;16.95;8.27;;;4.70;79.80;;;;;;5054187;28;20029;-68
2021/12/10 05:13:52;;;;;;;10.60;7.60;;;4.60;79.80;;;;;;5036471;28;20476;-73
2021/12/10 05:16:24;;;;;;;15.68;8.13;;;4.50;79.80;;;;;;5054140;28;20489;-65
2021/12/10 05:18:56;;;;;;;13.70;8.80;;;4.40;79.70;;;;;;5035955;28;20473;-66
2021/12/10 05:21:23;;;;;;;13.52;8.88;;;4.40;79.70;;;;;;5054393;28;20081;-67
2021/12/10 05:23:49;;;;;;;12.13;8.48;;;4.30;79.60;;;;;;5054275;28;20056;-74
2021/12/10 05:26:15;;;;;;;13.75;8.25;;;4.20;79.70;;;;;;5055067;28;20033;-71
2021/12/10 05:28:40;;;;;;;13.02;8.60;;;4.10;79.70;;;;;;5055171;28;20045;-67
2021/12/10 05:31:06;;;;;;;15.60;9.70;;;4.10;79.90;;;;;;5055626;28;20398;-76
2021/12/10 05:33:32;;;;;;;12.02;9.15;;;4.00;80.00;;;;;;5054637;28;20035;-69
2021/12/10 05:36:00;;;;;;;13.98;8.43;;;4.00;80.10;;;;;;5053911;28;20074;-65
2021/12/10 05:38:27;;;;;;;16.40;8.50;;;3.90;79.80;;;;;;5054334;28;20029;-62
2021/12/10 05:40:55;;;;;;;13.88;9.18;;;3.90;79.40;;;;;;5035649;28;20055;-70
2021/12/10 05:43:21;;;;;;;12.60;8.30;;;3.80;79.50;;;;;;5054087;28;20056;-67
2021/12/10 05:45:48;;;;;;;16.05;9.20;;;3.80;79.70;;;;;;5053660;28;20021;-77
2021/12/10 05:48:15;;;;;;;20.60;10.13;;;3.80;79.60;;;;;;5053987;28;20086;-67
2021/12/10 05:50:42;;;;;;;14.70;8.43;;;3.90;79.60;;;;;;5053483;28;20040;-66
2021/12/10 05:55:53;;;;;;;13.07;7.85;;;3.90;79.00;;;;;;5053937;28;20114;-66
2021/12/10 05:58:19;;;;;;;13.20;8.13;;;3.90;78.80;;;;;;5053478;28;20064;-73
2021/12/10 06:00:48;;;;;;;11.80;7.82;;;4.00;78.70;;;;;;5053271;28;20033;-62
2021/12/10 06:03:14;;;;;;;14.07;8.23;;;4.00;78.10;;;;;;5053593;28;20025;-75
2021/12/10 06:05:41;;;;;;;10.55;7.45;;;4.00;78.00;;;;;;5053663;28;20020;-65
2021/12/10 06:08:08;;;;;;;13.52;8.30;;;4.10;77.70;;;;;;5053568;28;20166;-69
2021/12/10 06:10:35;;;;;;;15.65;7.95;;;4.10;77.40;;;;;;5051543;28;20037;-72
2021/12/10 06:13:01;;;;;;;11.30;7.07;;;4.20;77.30;;;;;;5055078;28;20025;-66
2021/12/10 06:15:27;;;;;;;13.32;7.95;;;4.30;76.70;;;;;;5053202;28;20130;-72
2021/12/10 06:17:53;;;;;;;11.32;7.38;;;4.30;76.00;;;;;;5035018;28;20024;-73
2021/12/10 06:20:23;;;;;;;13.55;7.40;;;4.30;75.80;;;;;;5053449;28;20079;-69
2021/12/10 06:22:50;;;;;;;11.82;7.20;;;4.30;75.70;;;;;;5052843;28;20028;-69
2021/12/10 06:25:16;;;;;;;10.88;6.72;;;4.40;75.60;;;;;;5053338;28;20037;-71
2021/12/10 06:27:44;;;;;;;12.48;6.65;;;4.40;75.60;;;;;;5052873;28;20072;-68
2021/12/10 06:30:15;;;;;;;14.65;8.38;;;4.40;75.30;;;;;;5053157;28;20035;-73
2021/12/10 06:32:43;;;;;;;14.45;8.80;;;4.40;75.20;;;;;;5053133;28;20033;-69
2021/12/10 06:35:10;;;;;;;16.67;9.05;;;4.50;75.40;;;;;;5053040;28;20025;-71
2021/12/10 06:37:38;;;;;;;18.52;9.68;;;4.40;75.20;;;;;;5052581;28;20059;-72
2021/12/10 06:40:07;;;;;;;17.73;9.70;;;4.40;75.20;;;;;;5034616;28;20063;-71
2021/12/10 06:42:33;;;;;;;20.58;9.57;;;4.40;75.20;;;;;;5051901;28;20057;-67
2021/12/10 06:44:58;;;;;;;22.65;10.13;;;4.30;75.20;;;;;;5051321;28;20059;-74
2021/12/10 06:47:24;;;;;;;20.75;10.75;;;4.20;75.40;;;;;;5052495;28;20029;-70
2021/12/10 06:49:50;;;;;;;17.88;10.68;;;4.20;75.50;;;;;;5051782;28;20040;-76
2021/12/10 06:52:16;;;;;;;14.45;9.52;;;4.20;75.50;;;;;;5034234;28;20036;-70
2021/12/10 06:54:42;;;;;;;18.52;8.65;;;4.20;75.50;;;;;;5033382;28;20028;-71
2021/12/10 06:57:08;;;;;;;19.88;9.23;;;4.20;75.50;;;;;;5052152;28;20032;-71
2021/12/10 06:59:40;;;;;;;13.40;7.60;;;4.10;75.40;;;;;;5052668;28;20389;-70
2021/12/10 07:02:06;;;;;;;13.63;7.85;;;4.10;75.20;;;;;;5051707;28;20458;-73
2021/12/10 07:04:32;;;;;;;15.35;8.05;;;4.00;75.20;;;;;;5051211;28;20036;-69
2021/12/10 07:06:58;;;;;;;14.00;7.78;;;4.00;75.60;;;;;;5034090;28;20126;-68
2021/12/10 07:09:25;;;;;;;13.55;7.88;;;3.90;75.60;;;;;;5034898;28;20048;-70
2021/12/10 07:11:53;;;;;;;12.50;7.88;;;3.90;75.60;;;;;;5051887;28;20017;-75
2021/12/10 07:14:19;;;;;;;14.75;8.73;;;4.00;75.80;;;;;;5034928;28;20421;-73
2021/12/10 07:16:47;;;;;;;15.02;8.40;;;4.00;75.70;;;;;;5033894;28;20032;-73
2021/12/10 07:19:13;;;;;;;15.88;9.27;;;4.00;75.70;;;;;;5033984;28;20039;-69
2021/12/10 07:21:40;;;;;;;14.38;9.05;;;4.00;75.60;;;;;;5034304;28;20020;-68
2021/12/10 07:24:10;;;;;;;13.88;8.27;;;4.00;75.60;;;;;;5033732;28;20112;-68
2021/12/10 07:26:37;;;;;;;16.58;9.38;;;4.00;75.60;;;;;;5051900;28;20036;-76
2021/12/10 07:29:04;;;;;;;17.70;13.85;;;4.10;75.50;;;;;;5033776;28;20508;-73
2021/12/10 07:31:31;;;;;;;20.13;18.20;;;4.60;76.20;;;;;;5034007;28;20032;-72
2021/12/10 07:33:57;;;;;;;24.10;21.50;;;5.60;72.30;;;;;;5050344;28;20029;-70
2021/12/10 07:36:24;;;;;;;17.02;13.70;;;5.90;70.00;;;;;;5051686;28;20041;-70
2021/12/10 07:38:51;;;;;;;12.27;7.65;;;5.90;69.70;;;;;;5051274;28;20470;-72
2021/12/10 07:41:22;;;;;;;14.75;9.15;;;5.90;69.60;;;;;;5051522;28;20021;-71
2021/12/10 07:43:48;;;;;;;14.82;9.20;;;5.90;69.70;;;;;;5033600;28;20462;-69
2021/12/10 07:46:14;;;;;;;15.25;9.38;;;5.90;70.00;;;;;;5051675;28;20021;-75
2021/12/10 07:48:42;;;;;;;16.83;10.82;;;5.80;69.60;;;;;;5034025;28;20025;-69
2021/12/10 07:51:16;;;;;;;16.70;8.35;;;5.80;69.50;;;;;;5033173;28;20104;-71
2021/12/10 07:53:44;;;;;;;15.05;9.00;;;5.70;68.90;;;;;;5033799;28;20115;-70
2021/12/10 07:56:12;;;;;;;20.15;8.32;;;5.60;69.00;;;;;;5033285;28;20032;-69
2021/12/10 07:58:40;;;;;;;16.30;9.40;;;5.50;69.30;;;;;;5049318;28;20115;-66
2021/12/10 08:01:10;;;;;;;18.65;9.02;;;5.40;69.40;;;;;;5032824;28;20082;-70
2021/12/10 08:03:36;;;;;;;24.85;9.65;;;5.40;69.60;;;;;;5032926;28;20029;-66
2021/12/10 08:06:03;;;;;;;16.08;9.65;;;5.30;70.00;;;;;;5033637;28;20025;-65
2021/12/10 08:08:28;;;;;;;16.80;9.27;;;5.30;70.20;;;;;;5050491;28;20454;-65
2021/12/10 08:10:54;;;;;;;17.83;8.73;;;5.30;70.50;;;;;;5050378;28;20021;-63
2021/12/10 08:13:22;;;;;;;14.85;7.68;;;5.30;70.50;;;;;;5032765;28;20104;-70
2021/12/10 08:15:50;;;;;;;12.43;7.00;;;5.20;70.50;;;;;;5050499;28;20091;-66
2021/12/10 08:18:35;;;;;;;13.02;7.78;;;5.20;70.10;;;;;;5033478;28;20032;-69
2021/12/10 08:21:01;;;;;;;12.48;7.20;;;5.20;70.40;;;;;;5050722;28;20084;-66
2021/12/10 08:23:28;;;;;;;13.05;6.60;;;5.10;70.50;;;;;;5032649;28;20025;-64
2021/12/10 08:25:54;;;;;;;13.80;7.25;;;5.10;70.50;;;;;;5049722;28;20029;-72
2021/12/10 08:28:23;;;;;;;12.25;7.10;;;5.00;70.30;;;;;;5050237;28;20049;-68
2021/12/10 08:30:50;;;;;;;19.35;7.00;;;5.00;70.50;;;;;;5033592;28;20466;-68
2021/12/10 08:33:17;;;;;;;11.02;6.60;;;5.00;70.50;;;;;;5050869;28;20032;-67
2021/12/10 08:35:47;;;;;;;11.75;7.45;;;5.00;70.80;;;;;;5032035;28;20020;-70
2021/12/10 08:38:13;;;;;;;12.45;6.57;;;5.00;70.50;;;;;;5049496;28;20137;-69
2021/12/10 08:40:49;;;;;;;11.50;7.65;;;5.00;70.50;;;;;;5032101;28;20039;-71
2021/12/10 08:43:17;;;;;;;14.80;6.63;;;5.10;70.60;;;;;;5029856;28;20028;-70
2021/12/10 08:45:43;;;;;;;12.55;6.63;;;5.10;70.20;;;;;;5032954;28;20408;-67
2021/12/10 08:48:10;;;;;;;12.68;7.03;;;5.10;69.90;;;;;;5049483;28;20110;-70
2021/12/10 08:50:38;;;;;;;10.40;6.72;;;5.10;69.70;;;;;;5032503;28;20037;-68
2021/12/10 08:53:08;;;;;;;12.95;7.38;;;5.10;69.20;;;;;;5034766;28;20037;-69
2021/12/10 08:55:36;;;;;;;12.43;6.55;;;5.00;69.30;;;;;;5036467;28;20025;-68
2021/12/10 08:58:03;;;;;;;12.48;7.38;;;5.00;69.60;;;;;;5035556;28;20029;-71
2021/12/10 09:00:30;;;;;;;9.75;6.50;;;5.10;69.80;;;;;;5051542;28;20033;-68
2021/12/10 09:02:58;;;;;;;11.85;6.50;;;5.20;69.80;;;;;;5035101;28;20075;-64
2021/12/10 09:05:25;;;;;;;12.18;6.43;;;5.20;69.50;;;;;;5035834;28;20556;-72
2021/12/10 09:07:52;;;;;;;8.40;5.47;;;5.30;69.20;;;;;;5036581;28;20052;-68
2021/12/10 09:10:23;;;;;;;10.40;5.30;;;5.30;68.80;;;;;;5053927;28;20145;-69
2021/12/10 09:12:50;;;;;;;8.35;5.28;;;5.40;68.60;;;;;;5036444;28;20025;-69
2021/12/10 09:15:19;;;;;;;10.18;4.97;;;5.40;67.80;;;;;;5053451;28;20025;-68
2021/12/10 09:17:47;;;;;;;9.80;5.07;;;5.40;67.00;;;;;;5054767;28;20025;-65
2021/12/10 09:20:17;;;;;;;8.52;5.55;;;5.40;67.00;;;;;;5034968;28;20040;-69
2021/12/10 09:22:43;;;;;;;8.52;5.80;;;5.30;66.90;;;;;;5053666;28;20137;-75
2021/12/10 09:25:10;;;;;;;13.30;6.57;;;5.30;67.50;;;;;;5054919;28;20048;-68
2021/12/10 09:27:37;;;;;;;12.48;6.53;;;5.40;67.50;;;;;;5049496;28;20052;-69
2021/12/10 09:30:07;;;;;;;11.27;5.60;;;5.40;67.60;;;;;;5073318;28;20033;-72
2021/12/10 09:32:33;;;;;;;9.60;5.78;;;5.50;67.50;;;;;;5073856;28;20029;-62
2021/12/10 09:35:03;;;;;;;12.35;6.63;;;5.60;67.60;;;;;;5073448;28;20021;-68
2021/12/10 09:37:29;;;;;;;15.75;7.25;;;5.70;67.40;;;;;;5073880;28;20021;-64
2021/12/10 09:39:56;;;;;;;11.95;6.05;;;5.70;66.60;;;;;;5073831;28;20028;-68
2021/12/10 09:42:22;;;;;;;13.77;7.40;;;5.70;66.90;;;;;;5073576;28;20020;-69
2021/12/10 09:44:52;;;;;;;12.13;6.63;;;5.80;66.90;;;;;;5070407;28;20029;-68
2021/12/10 09:47:18;;;;;;;13.40;7.28;;;5.90;66.60;;;;;;5071549;28;20029;-69
2021/12/10 09:49:47;;;;;;;12.57;7.28;;;6.00;66.10;;;;;;5074086;28;20039;-74
2021/12/10 09:52:16;;;;;;;12.90;7.78;;;6.00;65.70;;;;;;5073922;28;20186;-69
2021/12/10 09:54:43;;;;;;;14.63;7.70;;;6.10;65.70;;;;;;5073825;28;20028;-68
2021/12/10 09:57:17;;;;;;;11.43;8.07;;;6.20;65.30;;;;;;5072271;28;20025;-68
2021/12/10 09:59:46;;;;;;;17.17;9.05;;;6.20;65.50;;;;;;5072760;28;20120;-67
2021/12/10 10:02:14;;;;;;;17.80;9.55;;;6.20;65.00;;;;;;5072436;28;20029;-71
2021/12/10 10:04:46;;;;;;;14.30;8.63;;;6.10;64.20;;;;;;5072763;28;20032;-69
2021/12/10 10:12:26;;;;;;;18.48;9.80;;;5.80;64.90;;;;;;5223620;22;20063;-61
2021/12/10 10:14:53;;;;;;;14.45;9.30;;;5.80;65.00;;;;;;5029444;28;20116;-62
2021/12/10 10:17:20;;;;;;;16.30;9.77;;;5.70;66.10;;;;;;5023493;28;20452;-62
2021/12/10 10:19:46;;;;;;;17.30;10.30;;;5.60;65.50;;;;;;5045476;28;20047;-66
2021/12/10 10:22:17;;;;;;;19.58;11.45;;;5.60;66.20;;;;;;5028804;28;20029;-66
2021/12/10 10:24:44;;;;;;;18.83;10.88;;;5.70;67.10;;;;;;5026534;28;20025;-70
2021/12/10 10:27:17;;;;;;;17.65;11.38;;;6.00;67.10;;;;;;5022647;28;20021;-65
2021/12/10 10:29:52;;;;;;;19.13;11.60;;;6.60;67.00;;;;;;5022494;28;20056;-66
2021/12/10 10:32:21;;;;;;;17.67;13.13;;;7.20;63.30;;;;;;5012813;28;20226;-67
2021/12/10 10:34:55;;;;;;;19.33;12.98;;;7.60;62.80;;;;;;5035349;28;20029;-66
2021/12/10 10:37:22;;;;;;;20.83;14.25;;;7.90;59.40;;;;;;5052655;28;20077;-72
2021/12/10 10:39:49;;;;;;;23.05;15.55;;;7.30;59.30;;;;;;5053190;28;20047;-63
2021/12/10 10:42:21;;;;;;;27.90;16.90;;;6.70;60.00;;;;;;5045561;28;20380;-71
2021/12/10 10:44:48;;;;;;;27.02;18.23;;;5.90;62.20;;;;;;5034023;28;20032;-62
2021/12/10 10:47:14;;;;;;;29.42;18.38;;;5.30;64.30;;;;;;5052119;28;20028;-67
2021/12/10 10:49:45;;;;;;;30.45;18.95;;;4.90;66.00;;;;;;5034958;28;20402;-68
2021/12/10 10:52:19;;;;;;;29.02;19.27;;;4.90;67.30;;;;;;5052366;28;20029;-63
2021/12/10 10:54:48;;;;;;;29.23;19.13;;;5.00;67.10;;;;;;5053150;28;20025;-59
2021/12/10 10:57:25;;;;;;;30.65;19.00;;;5.00;67.10;;;;;;5052321;28;20029;-64
2021/12/10 10:59:58;;;;;;;34.72;20.42;;;4.80;67.60;;;;;;5052880;28;20029;-67
2021/12/10 11:02:39;;;;;;;34.97;21.10;;;4.80;68.40;;;;;;5052817;28;20021;-61
2021/12/10 11:05:10;;;;;;;28.42;18.73;;;4.90;69.20;;;;;;5051763;28;20036;-67
2021/12/10 11:07:45;;;;;;;30.13;19.42;;;5.20;68.90;;;;;;5053004;28;20056;-61
2021/12/10 11:10:32;;;;;;;28.90;19.50;;;5.60;67.50;;;;;;5052043;28;20107;-62
2021/12/10 11:13:13;;;;;;;28.85;18.85;;;5.70;65.70;;;;;;5052676;28;20053;-62
2021/12/10 11:15:53;;;;;;;30.45;19.15;;;5.40;66.40;;;;;;5052285;28;20044;-67
2021/12/10 11:18:19;;;;;;;32.58;21.00;;;5.10;67.40;;;;;;5034547;28;20214;-64
2021/12/10 11:20:46;;;;;;;29.05;19.55;;;5.00;69.40;;;;;;5038142;28;20072;-65
2021/12/10 11:23:13;;;;;;;28.90;19.33;;;5.90;68.90;;;;;;5031679;28;20022;-62
2021/12/10 11:25:41;;;;;;;28.77;19.60;;;6.40;65.30;;;;;;5032703;28;20112;-69
2021/12/10 11:28:30;;;;;;;29.77;20.20;;;6.00;64.80;;;;;;5031632;28;20076;-62
2021/12/10 11:31:06;;;;;;;31.80;20.20;;;5.50;66.30;;;;;;5014590;28;20034;-68
2021/12/10 11:33:35;;;;;;;36.95;21.60;;;5.30;67.40;;;;;;5014688;28;20071;-65
2021/12/10 11:38:58;;;;;;;39.95;24.23;;;4.80;69.30;;;;;;5032705;28;20037;-65
2021/12/10 11:41:27;;;;;;;40.20;24.65;;;4.60;70.40;;;;;;5032236;28;20029;-61
2021/12/10 11:43:56;;;;;;;38.30;23.55;;;4.30;71.70;;;;;;5032310;28;20053;-67
2021/12/10 11:49:33;;;;;;;41.08;24.92;;;4.10;74.00;;;;;;5031633;28;20090;-65
2021/12/10 11:52:05;;;;;;;38.13;23.73;;;4.20;73.60;;;;;;5031927;28;20421;-67
2021/12/10 11:54:37;;;;;;;41.17;25.02;;;4.20;73.60;;;;;;5032287;28;20083;-65
2021/12/10 11:57:15;;;;;;;39.63;24.50;;;4.30;73.20;;;;;;5031469;28;20028;-69
2021/12/10 12:00:02;;;;;;;39.75;23.05;;;4.30;73.60;;;;;;5014578;28;20528;-69
2021/12/10 12:02:35;;;;;;;39.50;23.50;;;4.30;73.20;;;;;;5032163;28;20025;-67
2021/12/10 12:05:09;;;;;;;40.30;24.75;;;4.30;73.60;;;;;;5014605;28;20029;-67
2021/12/10 12:07:47;;;;;;;38.10;23.92;;;4.40;74.30;;;;;;5015094;28;20034;-66
2021/12/10 12:10:23;;;;;;;40.47;24.13;;;4.60;73.30;;;;;;5013598;28;20041;-70
2021/12/10 12:12:51;;;;;;;41.38;25.25;;;4.80;72.50;;;;;;5032449;28;20045;-71
2021/12/10 12:15:27;;;;;;;40.90;25.00;;;4.80;72.00;;;;;;5013781;28;20450;-62
2021/12/10 12:18:16;;;;;;;42.72;25.98;;;4.90;71.90;;;;;;5014140;28;20087;-72
2021/12/10 12:20:52;;;;;;;37.50;24.35;;;4.90;71.40;;;;;;5042421;28;20043;-71
2021/12/10 12:26:19;;;;;;;35.70;23.55;;;5.00;71.80;;;;;;5044975;28;20071;-62
2021/12/10 12:29:04;;;;;;;37.53;23.55;;;5.20;71.60;;;;;;5041883;28;20049;-56
2021/12/10 12:31:34;;;;;;;38.25;24.58;;;5.20;70.50;;;;;;5034762;28;20033;-65
2021/12/10 12:34:02;;;;;;;39.22;25.67;;;5.20;70.20;;;;;;5052508;28;20029;-64
2021/12/10 12:36:49;;;;;;;36.50;24.48;;;5.20;70.60;;;;;;5050276;28;20033;-63
2021/12/10 12:39:38;;;;;;;37.10;23.80;;;5.30;70.30;;;;;;5040340;28;20033;-72
2021/12/10 12:42:23;;;;;;;40.42;22.52;;;5.30;70.40;;;;;;5014720;28;20033;-66
2021/12/10 12:45:07;;;;;;;34.85;22.80;;;5.40;69.90;;;;;;5038759;28;20017;-64
2021/12/10 12:47:36;;;;;;;35.05;23.33;;;5.20;70.30;;;;;;5048714;28;20470;-63
2021/12/10 12:50:19;;;;;;;38.20;25.20;;;5.10;70.30;;;;;;5029823;28;20427;-61
2021/12/10 12:52:56;;;;;;;35.03;23.23;;;5.10;71.00;;;;;;5045747;28;20567;-63
2021/12/10 12:55:46;;;;;;;40.25;25.23;;;5.10;71.10;;;;;;5017379;28;20517;-68
2021/12/10 12:58:23;;;;;;;39.75;24.83;;;5.10;71.10;;;;;;5040763;28;20075;-63
2021/12/10 13:01:11;;;;;;;37.17;23.85;;;5.00;71.10;;;;;;5029129;28;20025;-64
2021/12/10 13:04:00;;;;;;;36.75;23.75;;;5.10;71.60;;;;;;5043727;28;20585;-65
2021/12/10 13:06:46;;;;;;;36.80;23.70;;;5.10;71.50;;;;;;5039918;28;20359;-64
2021/12/10 13:09:16;;;;;;;37.22;23.33;;;5.20;70.90;;;;;;5039205;28;20385;-65
2021/12/10 13:12:10;;;;;;;39.50;25.25;;;5.00;70.90;;;;;;5027021;28;20025;-59
2021/12/10 13:14:48;;;;;;;;;;;4.70;71.80;;;;;;5041924;28;20539;-65
2021/12/10 13:17:16;;;;;;;37.00;23.13;;;4.50;72.50;;;;;;5022060;28;19904;-63
2021/12/10 13:19:43;;;;;;;40.17;24.58;;;4.40;73.10;;;;;;5038772;28;20445;-73
2021/12/10 13:22:14;;;;;;;41.65;25.42;;;4.20;73.60;;;;;;5042888;28;20033;-74
2021/12/10 13:24:42;;;;;;;41.03;25.60;;;4.30;74.50;;;;;;5052870;28;20060;-70